Time;durP1;ratioP1;P1;durP2;ratioP2;P2;SDS_P1;SDS_P2;PMS_P1;PMS_P2;Temp;Humidity;BMP_temperature;BMP_pressure;BME280_temperature;BME280_humidity;BME280_pressure;Samples;Min_cycle;Max_cycle;Signal;HPM_P1;HPM_P2
2022/02/17 00:00:12;;;;;;;137.73;130.13;;;;;;;11.16;100.00;95454.44;5092447;28;20467;-55
2022/02/17 00:02:42;;;;;;;133.05;125.65;;;;;;;11.18;100.00;95454.97;5092042;28;20439;-58
2022/02/17 00:05:08;;;;;;;137.75;130.10;;;;;;;11.24;100.00;95452.09;5092414;28;20401;-57
2022/02/17 00:07:34;;;;;;;137.27;129.38;;;;;;;11.16;100.00;95457.84;5092374;28;20405;-56
2022/02/17 00:09:59;;;;;;;140.83;132.87;;;;;;;11.29;100.00;95453.91;5092246;28;20698;-57
2022/02/17 00:12:24;;;;;;;143.13;134.97;;;;;;;11.31;100.00;95461.53;5089772;28;20434;-58
2022/02/17 00:14:50;;;;;;;137.83;129.93;;;;;;;11.29;100.00;95469.66;5091596;28;20404;-56
2022/02/17 00:17:16;;;;;;;139.68;131.50;;;;;;;11.30;100.00;95452.88;5092009;28;20743;-55
2022/02/17 00:19:41;;;;;;;136.85;128.90;;;;;;;11.36;99.36;95443.94;5091960;28;20394;-58
2022/02/17 00:22:07;;;;;;;137.20;129.10;;;;;;;11.36;99.04;95446.56;5092204;28;20944;-58
2022/02/17 00:24:32;;;;;;;138.65;130.48;;;;;;;11.36;98.63;95428.22;5092219;28;20397;-58
2022/02/17 00:26:57;;;;;;;134.40;126.50;;;;;;;11.39;97.79;95422.41;5091720;28;20965;-57
2022/02/17 00:29:23;;;;;;;139.07;130.98;;;;;;;11.39;97.64;95416.38;5092177;28;20401;-57
2022/02/17 00:31:48;;;;;;;129.70;122.20;;;;;;;11.40;97.40;95428.47;5092136;28;20432;-58
2022/02/17 00:34:14;;;;;;;121.82;114.90;;;;;;;11.43;96.15;95405.09;5092334;28;20874;-58
2022/02/17 00:36:39;;;;;;;121.00;114.13;;;;;;;11.41;96.47;95404.59;5092031;28;20390;-57
2022/02/17 00:39:05;;;;;;;115.65;109.15;;;;;;;11.40;96.10;95404.84;5091436;28;20731;-57
2022/02/17 00:41:32;;;;;;;119.33;112.53;;;;;;;11.41;96.02;95388.06;5091899;28;20506;-55
2022/02/17 00:43:59;;;;;;;107.20;101.28;;;;;;;11.45;95.71;95412.69;5073307;28;20398;-58
2022/02/17 00:46:26;;;;;;;104.10;98.43;;;;;;;11.48;94.90;95412.94;5091660;28;20401;-58
2022/02/17 00:48:53;;;;;;;103.00;97.25;;;;;;;11.47;94.81;95410.63;5092012;28;20389;-54
2022/02/17 00:51:18;;;;;;;102.50;96.85;;;;;;;11.47;94.83;95419.28;5091498;28;20386;-53
2022/02/17 00:53:44;;;;;;;103.57;97.97;;;;;;;11.51;94.86;95417.69;5091393;28;20492;-59
2022/02/17 00:56:09;;;;;;;99.83;94.33;;;;;;;11.48;94.32;95418.19;5073416;28;20440;-57
2022/02/17 00:58:35;;;;;;;104.00;98.30;;;;;;;11.53;94.01;95420.03;5091598;28;20444;-58
2022/02/17 01:01:00;;;;;;;107.88;101.82;;;;;;;11.49;94.42;95414.53;5090440;28;20473;-57
2022/02/17 01:03:26;;;;;;;108.43;102.50;;;;;;;11.46;94.81;95407.19;5091478;28;20755;-54
2022/02/17 01:05:51;;;;;;;106.37;100.57;;;;;;;11.45;94.93;95405.63;5091340;28;20398;-57
2022/02/17 01:08:16;;;;;;;120.67;113.93;;;;;;;11.43;95.50;95407.72;5091016;28;20413;-57
2022/02/17 01:10:42;;;;;;;108.80;102.80;;;;;;;11.54;94.97;95418.97;5091175;28;20409;-54
2022/02/17 01:13:07;;;;;;;132.52;124.45;;;;;;;11.42;95.86;95382.56;5088884;28;20422;-52
2022/02/17 01:15:33;;;;;;;145.17;136.63;;;;;;;11.25;97.79;95377.59;5091169;28;20393;-52
2022/02/17 01:17:59;;;;;;;144.13;135.63;;;;;;;11.19;99.07;95381.28;5091075;28;20485;-52
2022/02/17 01:20:24;;;;;;;155.75;146.55;;;;;;;11.13;99.55;95386.78;5091306;28;20393;-52
2022/02/17 01:22:50;;;;;;;159.07;149.73;;;;;;;11.18;99.74;95413.78;5090858;28;20398;-54
2022/02/17 01:25:16;;;;;;;152.73;143.83;;;;;;;11.22;99.74;95409.59;5072811;28;20386;-58
2022/02/17 01:27:44;;;;;;;147.85;139.38;;;;;;;11.10;100.00;95401.19;5091034;28;20424;-55
2022/02/17 01:30:10;;;;;;;142.32;134.02;;;;;;;11.03;100.00;95389.44;5091035;28;20429;-55
2022/02/17 01:32:36;;;;;;;149.23;140.75;;;;;;;10.97;99.96;95393.88;5091791;28;20406;-53
2022/02/17 01:35:02;;;;;;;155.30;146.57;;;;;;;11.02;100.00;95391.25;5076741;28;20386;-52
2022/02/17 01:37:28;;;;;;;148.75;140.27;;;;;;;10.98;100.00;95398.06;5094949;28;20442;-52
2022/02/17 01:39:53;;;;;;;149.07;140.60;;;;;;;11.06;99.37;95404.63;5095249;28;20386;-52
2022/02/17 01:42:19;;;;;;;152.15;143.27;;;;;;;11.05;99.37;95401.22;5094980;28;20431;-52
2022/02/17 01:44:45;;;;;;;150.73;142.27;;;;;;;11.08;100.00;95387.59;5095371;28;20720;-53
2022/02/17 01:47:14;;;;;;;142.90;134.90;;;;;;;10.98;100.00;95379.69;5094666;28;20402;-53
2022/02/17 01:49:40;;;;;;;145.68;137.32;;;;;;;10.89;100.00;95391.00;5094903;28;20492;-58
2022/02/17 01:52:07;;;;;;;151.23;142.73;;;;;;;10.94;100.00;95407.50;5094897;28;20392;-53
2022/02/17 01:54:33;;;;;;;142.63;134.73;;;;;;;10.98;100.00;95415.66;5094387;28;20451;-52
2022/02/17 01:57:03;;;;;;;155.27;146.55;;;;;;;11.03;100.00;95423.50;5094631;28;20386;-58
2022/02/17 01:59:29;;;;;;;145.70;137.60;;;;;;;11.04;100.00;95417.19;5094502;28;20405;-58
2022/02/17 02:01:54;;;;;;;142.23;134.35;;;;;;;11.06;100.00;95415.09;5094215;28;20401;-54
2022/02/17 02:04:20;;;;;;;147.10;139.00;;;;;;;10.90;100.00;95397.81;5094315;28;20402;-58
2022/02/17 02:06:45;;;;;;;140.48;132.88;;;;;;;10.90;100.00;95392.56;5094418;28;20416;-57
2022/02/17 02:09:11;;;;;;;138.90;131.30;;;;;;;10.72;100.00;95401.72;5093958;28;20405;-58
2022/02/17 02:11:36;;;;;;;131.17;124.10;;;;;;;10.75;100.00;95391.53;5092173;28;20434;-57
2022/02/17 02:14:02;;;;;;;126.22;119.45;;;;;;;10.74;100.00;95400.44;5094507;28;20400;-58
2022/02/17 02:16:28;;;;;;;130.45;123.35;;;;;;;10.69;100.00;95378.69;5094120;28;20455;-57
2022/02/17 02:18:53;;;;;;;126.10;119.20;;;;;;;10.78;100.00;95405.94;5093951;28;20394;-57
2022/02/17 02:21:23;;;;;;;131.02;123.85;;;;;;;10.73;100.00;95393.63;5094025;28;20389;-55
2022/02/17 02:23:48;;;;;;;127.50;120.60;;;;;;;10.79;100.00;95389.94;5094269;28;20466;-57
2022/02/17 02:26:14;;;;;;;123.63;116.90;;;;;;;10.68;100.00;95398.06;5094106;28;20878;-58
2022/02/17 02:28:40;;;;;;;127.40;120.40;;;;;;;10.64;100.00;95408.28;5093907;28;20410;-57
2022/02/17 02:31:05;;;;;;;129.88;122.88;;;;;;;10.79;100.00;95399.63;5093890;28;20757;-57
2022/02/17 02:33:31;;;;;;;129.07;121.97;;;;;;;10.75;100.00;95398.59;5094070;28;20397;-57
2022/02/17 02:35:57;;;;;;;127.72;120.70;;;;;;;10.71;100.00;95390.44;5094105;28;20435;-60
2022/02/17 02:38:22;;;;;;;124.35;117.40;;;;;;;10.56;100.00;95394.91;5094317;28;20442;-54
2022/02/17 02:40:48;;;;;;;126.50;119.47;;;;;;;10.57;100.00;95401.72;5094046;28;20385;-58
2022/02/17 02:43:14;;;;;;;122.63;115.93;;;;;;;10.65;100.00;95412.47;5093326;28;20402;-58
2022/02/17 02:45:39;;;;;;;126.45;119.32;;;;;;;10.41;100.00;95403.53;5094076;28;20394;-57
2022/02/17 02:48:07;;;;;;;123.50;116.30;;;;;;;10.35;100.00;95387.00;5093587;28;20419;-58
2022/02/17 02:50:33;;;;;;;127.63;120.43;;;;;;;10.42;100.00;95384.16;5093684;28;20401;-56
2022/02/17 02:52:59;;;;;;;127.82;120.63;;;;;;;10.38;100.00;95383.06;5093342;28;20433;-58
2022/02/17 02:55:25;;;;;;;128.35;120.93;;;;;;;10.33;100.00;95364.75;5093467;28;20821;-58
2022/02/17 02:57:50;;;;;;;126.55;119.05;;;;;;;10.37;100.00;95360.53;5093793;28;20477;-58
2022/02/17 03:00:16;;;;;;;121.87;114.43;;;;;;;10.27;100.00;95356.09;5093415;28;20497;-58
2022/02/17 03:02:43;;;;;;;120.53;113.70;;;;;;;10.28;100.00;95351.63;5093420;28;20423;-58
2022/02/17 03:05:09;;;;;;;125.32;118.13;;;;;;;10.28;100.00;95357.66;5093346;28;20441;-58
2022/02/17 03:07:35;;;;;;;125.53;118.47;;;;;;;10.30;100.00;95367.88;5092938;28;20497;-56
2022/02/17 03:10:01;;;;;;;124.33;117.33;;;;;;;10.31;100.00;95361.59;5093545;28;20481;-57
2022/02/17 03:12:27;;;;;;;114.53;108.07;;;;;;;10.37;100.00;95361.34;5091046;28;20433;-58
2022/02/17 03:14:53;;;;;;;113.43;107.03;;;;;;;10.39;100.00;95361.09;5074668;28;20402;-56
2022/02/17 03:17:19;;;;;;;107.95;101.88;;;;;;;10.39;100.00;95359.25;5092777;28;20393;-58
2022/02/17 03:19:45;;;;;;;113.50;107.10;;;;;;;10.47;100.00;95368.44;5093405;28;20394;-58
2022/02/17 03:22:11;;;;;;;97.80;92.30;;;;;;;10.48;100.00;95361.38;5092899;28;20402;-57
2022/02/17 03:24:36;;;;;;;106.80;100.75;;;;;;;10.41;100.00;95338.84;5093231;28;20383;-55
2022/02/17 03:27:02;;;;;;;102.47;96.67;;;;;;;10.38;100.00;95355.06;5092492;28;20902;-53
2022/02/17 03:29:27;;;;;;;101.30;95.70;;;;;;;10.41;100.00;95366.84;5093199;28;20401;-55
2022/02/17 03:31:53;;;;;;;109.78;103.63;;;;;;;10.40;100.00;95344.31;5092715;28;20393;-58
2022/02/17 03:34:19;;;;;;;109.97;103.87;;;;;;;10.36;100.00;95346.69;5092788;28;20393;-55
2022/02/17 03:36:44;;;;;;;115.82;109.43;;;;;;;10.35;100.00;95331.22;5092778;28;20386;-55
2022/02/17 03:39:10;;;;;;;112.95;106.55;;;;;;;10.32;100.00;95348.22;5073873;28;20397;-58
2022/02/17 03:41:35;;;;;;;110.90;104.60;;;;;;;10.31;100.00;95338.81;5092475;28;20408;-58
2022/02/17 03:44:01;;;;;;;105.53;99.63;;;;;;;10.31;100.00;95356.34;5092474;28;20382;-57
2022/02/17 03:46:27;;;;;;;107.67;101.67;;;;;;;10.33;100.00;95355.06;5091867;28;20416;-57
2022/02/17 03:48:52;;;;;;;102.93;97.32;;;;;;;10.27;100.00;95350.06;5092694;28;20526;-58
2022/02/17 03:51:18;;;;;;;102.00;96.43;;;;;;;10.30;100.00;95360.81;5092353;28;20412;-58
2022/02/17 03:53:43;;;;;;;96.70;91.40;;;;;;;10.24;100.00;95369.72;5092143;28;20433;-56
2022/02/17 03:56:08;;;;;;;100.57;95.07;;;;;;;10.33;100.00;95389.09;5091799;28;20406;-57
2022/02/17 04:01:18;;;;;;;102.32;96.72;;;;;;;10.38;100.00;95362.91;5092554;28;20935;-55
2022/02/17 04:03:43;;;;;;;93.28;88.28;;;;;;;10.43;100.00;95367.38;5092341;28;20406;-53
2022/02/17 04:06:09;;;;;;;87.70;83.00;;;;;;;10.40;100.00;95363.44;5091856;28;20406;-58
2022/02/17 04:08:34;;;;;;;90.17;85.37;;;;;;;10.47;100.00;95362.41;5091655;28;20410;-54
2022/02/17 04:11:02;;;;;;;85.90;81.23;;;;;;;10.59;100.00;95382.06;5092027;28;20857;-58
2022/02/17 04:13:28;;;;;;;74.85;70.88;;;;;;;10.66;100.00;95381.81;5089638;28;20422;-57
2022/02/17 04:15:54;;;;;;;75.90;71.85;;;;;;;10.55;100.00;95394.09;5091867;28;20769;-57
2022/02/17 04:18:19;;;;;;;73.83;69.93;;;;;;;10.48;100.00;95385.72;5091557;28;20382;-55
2022/02/17 04:20:45;;;;;;;85.22;80.35;;;;;;;10.41;100.00;95393.84;5091839;28;20390;-58
2022/02/17 04:23:10;;;;;;;76.00;72.00;;;;;;;10.46;100.00;95387.03;5091644;28;20408;-55
2022/02/17 04:25:35;;;;;;;70.25;66.50;;;;;;;10.50;100.00;95394.09;5092362;28;20398;-55
2022/02/17 04:28:01;;;;;;;74.73;70.73;;;;;;;10.53;100.00;95384.94;5091447;28;20809;-54
2022/02/17 04:30:27;;;;;;;68.43;64.82;;;;;;;10.62;100.00;95380.75;5091718;28;20417;-57
2022/02/17 04:32:52;;;;;;;70.63;66.83;;;;;;;10.76;100.00;95397.53;5091916;28;20487;-58
2022/02/17 04:35:18;;;;;;;67.43;63.83;;;;;;;10.80;100.00;95411.69;5091747;28;20394;-60
2022/02/17 04:37:43;;;;;;;69.37;65.70;;;;;;;10.71;100.00;95410.63;5091930;28;20386;-58
2022/02/17 04:40:09;;;;;;;84.90;80.37;;;;;;;10.67;100.00;95407.75;5073349;28;20801;-53
2022/02/17 04:42:34;;;;;;;82.45;78.05;;;;;;;10.59;100.00;95397.78;5091755;28;20739;-55
2022/02/17 04:45:00;;;;;;;81.00;76.60;;;;;;;10.49;100.00;95410.88;5091654;28;20481;-58
2022/02/17 04:47:25;;;;;;;85.25;80.60;;;;;;;10.48;100.00;95406.66;5091223;28;20523;-54
2022/02/17 04:49:50;;;;;;;82.77;78.37;;;;;;;10.45;100.00;95419.50;5091434;28;20394;-57
2022/02/17 04:52:16;;;;;;;81.97;77.47;;;;;;;10.50;100.00;95420.31;5091067;28;20872;-56
2022/02/17 04:54:42;;;;;;;92.00;87.00;;;;;;;10.56;100.00;95413.25;5091368;28;20394;-55
2022/02/17 04:57:08;;;;;;;98.50;92.70;;;;;;;10.49;100.00;95420.56;5091726;28;20386;-57
2022/02/17 04:59:35;;;;;;;102.53;96.88;;;;;;;10.46;100.00;95411.41;5091390;28;20474;-56
2022/02/17 05:02:01;;;;;;;93.07;88.07;;;;;;;10.43;100.00;95411.91;5090911;28;20402;-55
2022/02/17 05:04:26;;;;;;;93.20;88.07;;;;;;;10.50;100.00;95409.81;5091249;28;20410;-57
2022/02/17 05:06:52;;;;;;;85.15;80.45;;;;;;;10.50;100.00;95415.06;5090454;28;20949;-58
2022/02/17 05:09:18;;;;;;;84.15;79.38;;;;;;;10.58;100.00;95419.00;5090889;28;20402;-57
2022/02/17 05:11:43;;;;;;;76.07;71.87;;;;;;;10.63;100.00;95435.53;5089082;28;20418;-55
2022/02/17 05:14:08;;;;;;;85.30;80.53;;;;;;;10.64;100.00;95454.66;5090775;28;20410;-58
2022/02/17 05:16:34;;;;;;;81.90;77.30;;;;;;;10.71;100.00;95447.31;5090113;28;20396;-56
2022/02/17 05:18:59;;;;;;;78.03;73.63;;;;;;;10.64;100.00;95438.94;5091321;28;20411;-55
2022/02/17 05:21:25;;;;;;;84.10;79.23;;;;;;;10.55;100.00;95446.50;5090772;28;20394;-57
2022/02/17 05:23:51;;;;;;;81.43;76.53;;;;;;;10.48;100.00;95435.47;5090826;28;20522;-57
2022/02/17 05:26:17;;;;;;;72.38;68.38;;;;;;;10.47;100.00;95422.66;5091629;28;20393;-58
2022/02/17 05:28:42;;;;;;;79.35;74.80;;;;;;;10.41;100.00;95461.94;5091140;28;20412;-57
2022/02/17 05:31:09;;;;;;;73.93;69.77;;;;;;;10.48;100.00;95484.50;5091124;28;20398;-59
2022/02/17 05:33:35;;;;;;;71.93;67.90;;;;;;;10.54;100.00;95484.22;5091066;28;20922;-58
2022/02/17 05:36:01;;;;;;;68.33;64.53;;;;;;;10.56;100.00;95490.00;5091011;28;20394;-57
2022/02/17 05:38:26;;;;;;;72.47;68.37;;;;;;;10.60;100.00;95505.97;5091217;28;20431;-59
2022/02/17 05:40:51;;;;;;;71.73;67.60;;;;;;;10.65;100.00;95517.28;5090504;28;20432;-55
2022/02/17 05:43:17;;;;;;;69.40;65.50;;;;;;;10.73;100.00;95510.75;5090831;28;20401;-59
2022/02/17 05:45:43;;;;;;;63.30;59.70;;;;;;;10.81;100.00;95511.00;5090350;28;20421;-56
2022/02/17 05:48:08;;;;;;;76.77;72.17;;;;;;;10.68;100.00;95522.00;5089736;28;20451;-59
2022/02/17 05:50:34;;;;;;;63.72;60.13;;;;;;;10.72;100.00;95517.03;5090987;28;20394;-57
2022/02/17 05:52:59;;;;;;;56.30;53.20;;;;;;;10.84;100.00;95541.97;5090666;28;20829;-53
2022/02/17 05:55:26;;;;;;;62.60;59.03;;;;;;;10.86;100.00;95528.63;5090665;28;20427;-59
2022/02/17 05:57:51;;;;;;;58.13;54.92;;;;;;;10.76;100.00;95563.41;5089474;28;20859;-59
2022/02/17 06:00:19;;;;;;;58.60;55.40;;;;;;;10.65;100.00;95551.34;5090664;28;20413;-59
2022/02/17 06:02:45;;;;;;;57.55;54.35;;;;;;;10.58;100.00;95555.25;5090685;28;20499;-58
2022/02/17 06:05:11;;;;;;;53.80;50.85;;;;;;;10.53;100.00;95560.47;5090541;28;20878;-59
2022/02/17 06:07:38;;;;;;;53.40;50.50;;;;;;;10.58;97.83;95563.13;5090541;28;20418;-58
2022/02/17 06:10:05;;;;;;;56.15;53.05;;;;;;;10.54;96.34;95575.91;5090595;28;20413;-58
2022/02/17 06:12:31;;;;;;;51.53;48.72;;;;;;;10.59;94.96;95591.66;5099024;28;20951;-57
2022/02/17 06:14:57;;;;;;;45.33;42.53;;;;;;;10.59;92.40;95594.28;5111346;28;20405;-58
2022/02/17 06:17:23;;;;;;;69.72;64.50;;;;;;;10.55;90.43;95574.09;5110293;28;20475;-57
2022/02/17 06:19:48;;;;;;;26.57;25.07;;;;;;;10.55;90.29;95598.47;5114396;28;20297;-56
2022/02/17 06:22:14;;;;;;;15.40;14.50;;;;;;;10.58;89.62;95603.19;5115665;28;20268;-57
2022/02/17 06:24:39;;;;;;;5.77;5.37;;;;;;;10.55;89.81;95603.69;5115423;28;20172;-59
2022/02/17 06:27:04;;;;;;;12.43;11.53;;;;;;;10.49;89.52;95596.84;5115374;28;20196;-57
2022/02/17 06:29:30;;;;;;;10.70;9.97;;;;;;;10.33;89.99;95614.31;5115686;28;20508;-60
2022/02/17 06:31:55;;;;;;;6.83;6.33;;;;;;;10.27;91.24;95606.69;5115430;28;20226;-60
2022/02/17 06:34:21;;;;;;;14.93;13.93;;;;;;;10.14;91.14;95570.47;5115023;28;20170;-59
2022/02/17 06:36:49;;;;;;;8.47;7.90;;;;;;;10.07;92.26;95602.09;5115658;28;20200;-59
2022/02/17 06:39:15;;;;;;;7.27;6.77;;;;;;;10.07;91.98;95615.19;5115399;28;20259;-59
2022/02/17 06:41:40;;;;;;;;;;;;;;;9.99;92.64;95631.34;5097457;28;20127;-59
2022/02/17 06:44:06;;;;;;;;;;;;;;;9.96;92.39;95616.94;5115805;28;19958;-59
2022/02/17 06:46:32;;;;;;;;;;;;;;;9.94;91.96;95637.34;5115832;28;20387;-55
2022/02/17 06:48:57;;;;;;;;;;;;;;;9.88;91.46;95624.47;5116254;28;19919;-56
2022/02/17 06:51:23;;;;;;;;;;;;;;;9.89;90.86;95647.78;5115481;28;20006;-59
2022/02/17 06:53:48;;;;;;;;;;;;;;;9.92;89.91;95662.97;5115466;28;19912;-61
2022/02/17 06:56:14;;;;;;;20.60;19.00;;;;;;;9.85;88.79;95656.38;5115289;28;20178;-60
2022/02/17 06:58:39;;;;;;;32.30;29.77;;;;;;;9.85;88.97;95662.41;5115203;28;20215;-59
2022/02/17 07:01:04;;;;;;;11.03;10.03;;;;;;;9.88;88.58;95674.97;5114722;28;20501;-60
2022/02/17 07:03:30;;;;;;;8.63;7.93;;;;;;;9.92;88.11;95660.34;5114783;28;20179;-60
2022/02/17 07:05:55;;;;;;;9.13;8.53;;;;;;;9.88;87.77;95688.06;5115106;28;20185;-59
2022/02/17 07:08:21;;;;;;;65.80;61.67;;;;;;;9.93;86.58;95687.31;5113532;28;20408;-58
2022/02/17 07:10:55;;;;;;;;;;;;;;;10.04;84.58;95678.50;5115094;28;20032;-59
2022/02/17 07:13:21;;;;;;;;;;;;;;;10.08;83.96;95697.13;5095673;28;19916;-57
2022/02/17 07:15:48;;;;;;;10.03;9.23;;;;;;;10.07;83.74;95693.72;5094560;28;20705;-62
2022/02/17 07:18:15;;;;;;;19.93;18.17;;;;;;;10.16;84.05;95673.91;5093040;28;20180;-66
2022/02/17 07:20:43;;;;;;;9.93;9.10;;;;;;;10.20;83.84;95716.88;5094653;28;20169;-61
2022/02/17 07:23:09;;;;;;;9.03;8.43;;;;;;;10.10;85.47;95671.47;5094578;28;20192;-60
2022/02/17 07:25:35;;;;;;;12.90;11.70;;;;;;;10.02;86.31;95662.28;5093775;28;20641;-58
2022/02/17 07:28:00;;;;;;;14.27;13.03;;;;;;;9.90;87.99;95657.22;5094363;28;20212;-59
2022/02/17 07:30:26;;;;;;;14.57;13.37;;;;;;;9.86;88.67;95684.88;5093542;28;20169;-59
2022/02/17 07:32:52;;;;;;;26.80;24.67;;;;;;;9.92;88.96;95686.50;5094380;28;20285;-57
2022/02/17 07:35:18;;;;;;;23.03;21.37;;;;;;;9.91;89.67;95678.94;5094472;28;20195;-56
2022/02/17 07:37:43;;;;;;;9.60;9.00;;;;;;;9.87;90.73;95689.09;5093747;28;20609;-63
2022/02/17 07:40:11;;;;;;;11.47;10.77;;;;;;;9.87;90.61;95680.44;5094007;28;20251;-62
2022/02/17 07:42:38;;;;;;;9.93;9.13;;;;;;;9.88;90.70;95708.22;5093561;28;20196;-57
2022/02/17 07:45:04;;;;;;;9.30;8.70;;;;;;;9.86;90.27;95702.44;5093728;28;20169;-60
2022/02/17 07:47:30;;;;;;;11.73;10.73;;;;;;;9.86;89.63;95700.59;5093714;28;20540;-55
2022/02/17 07:49:56;;;;;;;11.10;10.10;;;;;;;9.84;88.56;95687.00;5093168;28;20506;-58
2022/02/17 07:52:25;;;;;;;14.50;13.07;;;;;;;9.82;87.59;95707.38;5093477;28;20200;-58
2022/02/17 07:54:51;;;;;;;14.23;11.90;;;;;;;10.04;89.90;95704.69;5093407;28;20205;-57
2022/02/17 07:57:17;;;;;;;9.53;8.77;;;;;;;10.56;83.12;95719.78;5093685;28;20263;-56
2022/02/17 07:59:43;;;;;;;11.80;11.07;;;;;;;10.29;83.60;95732.94;5094153;28;20194;-57
2022/02/17 08:02:09;;;;;;;14.33;13.43;;;;;;;10.12;83.62;95717.31;5090131;28;20665;-55
2022/02/17 08:04:37;;;;;;;15.03;13.57;;;;;;;10.11;83.10;95720.97;5093442;28;20184;-55
2022/02/17 08:07:04;;;;;;;19.73;18.40;;;;;;;10.10;80.26;95729.06;5093016;28;20197;-60
2022/02/17 08:09:30;;;;;;;21.13;19.73;;;;;;;10.28;78.97;95723.50;5093929;28;20268;-58
2022/02/17 08:11:55;;;;;;;9.97;8.83;;;;;;;10.42;77.52;95746.38;5090551;28;20320;-57
2022/02/17 08:14:21;;;;;;;24.50;22.47;;;;;;;10.58;75.46;95760.41;5093196;28;20177;-57
2022/02/17 08:16:46;;;;;;;16.77;14.43;;;;;;;10.57;75.01;95771.94;5092890;28;20180;-58
2022/02/17 08:19:12;;;;;;;30.77;28.27;;;;;;;10.54;73.83;95759.31;5090803;28;20185;-58
2022/02/17 08:21:38;;;;;;;16.83;15.57;;;;;;;10.71;74.10;95777.50;5092924;28;20261;-61
2022/02/17 08:24:03;;;;;;;13.73;12.33;;;;;;;10.72;73.57;95768.63;5093456;28;20177;-58
2022/02/17 08:26:29;;;;;;;15.37;14.17;;;;;;;10.86;72.67;95758.50;5093626;28;20173;-57
2022/02/17 08:28:57;;;;;;;15.13;13.93;;;;;;;11.01;71.83;95764.59;5092434;28;20246;-52
2022/02/17 08:31:24;;;;;;;16.20;15.00;;;;;;;11.01;71.04;95766.44;5092678;28;20196;-57
2022/02/17 08:33:50;;;;;;;17.13;16.07;;;;;;;10.93;69.54;95780.81;5094533;28;20181;-56
2022/02/17 08:36:15;;;;;;;21.47;19.93;;;;;;;11.00;69.29;95791.06;5093786;28;20676;-58
2022/02/17 08:38:42;;;;;;;23.27;21.77;;;;;;;11.01;69.01;95792.66;5092740;28;20185;-58
2022/02/17 08:41:09;;;;;;;13.80;12.43;;;;;;;10.97;68.23;95800.25;5092324;28;20613;-59
2022/02/17 08:43:34;;;;;;;16.93;14.73;;;;;;;10.98;68.08;95827.25;5092521;28;20188;-58
2022/02/17 08:46:00;;;;;;;;;;;;;;;10.84;67.48;95821.66;5093034;28;20039;-57
2022/02/17 08:48:25;;;;;;;;;;;;;;;10.87;65.83;95820.38;5075242;28;19962;-57
2022/02/17 08:50:51;;;;;;;;;;;;;;;10.95;65.69;95817.25;5092867;28;19918;-55
2022/02/17 08:53:17;;;;;;;;;;;;;;;10.78;65.67;95794.63;5092934;28;19912;-55
2022/02/17 08:55:42;;;;;;;;;;;;;;;10.79;65.53;95805.88;5093462;28;19912;-54
2022/02/17 08:58:07;;;;;;;22.47;20.23;;;;;;;10.74;64.18;95835.47;5093087;28;20190;-57
2022/02/17 09:00:33;;;;;;;47.17;44.23;;;;;;;10.84;64.46;95814.56;5091362;28;20416;-58
2022/02/17 09:02:59;;;;;;;22.03;20.13;;;;;;;10.90;62.98;95823.25;5091349;28;20424;-56
2022/02/17 09:05:25;;;;;;;42.88;39.67;;;;;;;10.99;62.40;95803.38;5090884;28;20402;-54
2022/02/17 09:07:51;;;;;;;51.03;47.83;;;;;;;11.06;62.45;95827.56;5091104;28;20475;-58
2022/02/17 09:10:16;;;;;;;57.50;53.88;;;;;;;11.41;61.96;95828.81;5091012;28;20448;-56
2022/02/17 09:12:42;;;;;;;63.27;59.30;;;;;;;11.36;61.63;95849.78;5088073;28;20840;-56
2022/02/17 09:15:09;;;;;;;55.50;51.83;;;;;;;11.34;61.66;95852.66;5080262;28;20404;-54
2022/02/17 09:17:35;;;;;;;58.80;55.07;;;;;;;11.07;62.28;95857.19;5076121;28;20512;-53
2022/02/17 09:20:00;;;;;;;50.50;47.17;;;;;;;11.18;61.98;95877.22;5070164;28;20422;-55
2022/02/17 09:22:26;;;;;;;49.93;46.70;;;;;;;11.45;61.08;95891.03;5071697;28;20779;-58
2022/02/17 09:24:52;;;;;;;39.75;36.90;;;;;;;11.49;59.23;95883.41;5083537;28;20422;-56
2022/02/17 09:27:17;;;;;;;36.40;33.83;;;;;;;11.85;58.19;95866.06;5086621;28;20419;-57
2022/02/17 09:29:43;;;;;;;38.70;35.67;;;;;;;11.35;57.32;95867.34;5071401;28;20490;-53
2022/02/17 09:32:11;;;;;;;32.58;30.27;;;;;;;11.74;56.90;95901.19;5073289;28;20403;-54
2022/02/17 09:34:40;;;;;;;21.80;19.53;;;;;;;11.56;54.76;95878.75;5083079;28;20168;-54
2022/02/17 09:37:07;;;;;;;17.60;16.07;;;;;;;11.23;53.46;95887.72;5073420;28;20151;-55
2022/02/17 09:39:36;;;;;;;89.53;66.37;;;;;;;11.08;54.03;95908.63;5071050;28;20173;-55
2022/02/17 09:42:04;;;;;;;13.60;12.40;;;;;;;11.28;53.99;95919.25;5079619;28;20431;-54
2022/02/17 09:44:30;;;;;;;27.47;25.53;;;;;;;11.60;53.43;95896.34;5072923;28;20399;-54
2022/02/17 09:46:56;;;;;;;31.63;29.50;;;;;;;11.82;52.49;95921.69;5089732;28;20406;-56
2022/02/17 09:49:22;;;;;;;39.15;36.38;;;;;;;11.71;52.78;95941.81;5077230;28;20387;-53
2022/02/17 09:51:50;;;;;;;37.20;34.60;;;;;;;11.49;52.38;95951.66;5081614;28;20781;-57
2022/02/17 09:54:18;;;;;;;34.92;32.42;;;;;;;11.37;52.95;95930.06;5092395;28;20401;-55
2022/02/17 09:56:44;;;;;;;37.03;34.30;;;;;;;11.25;53.54;95943.38;5086870;28;20407;-53
2022/02/17 09:59:10;;;;;;;39.28;36.40;;;;;;;11.22;53.86;95962.22;5075066;28;20395;-52
2022/02/17 10:01:37;;;;;;;40.42;37.67;;;;;;;11.60;53.24;95963.78;5085415;28;20410;-54
2022/02/17 10:04:23;;;;;;;43.95;40.75;;;;;;;11.37;53.58;95969.44;5094782;28;20473;-57
2022/02/17 10:06:53;;;;;;;43.72;40.60;;;;;;;11.40;53.82;95963.66;5082600;28;20456;-53
2022/02/17 10:09:20;;;;;;;41.58;38.78;;;;;;;11.73;54.50;95979.16;5075197;28;20803;-54
2022/02/17 10:11:48;;;;;;;39.47;36.45;;;;;;;11.92;55.92;95969.81;5086751;28;20424;-53
2022/02/17 10:14:16;;;;;;;41.35;38.25;;;;;;;12.08;56.25;95978.56;5090770;28;20956;-54
2022/02/17 10:17:02;;;;;;;45.50;42.07;;;;;;;12.02;56.86;95976.94;5092127;28;20433;-57
2022/02/17 10:19:34;;;;;;;34.58;32.28;;;;;;;11.59;57.96;95984.00;5087204;28;20818;-55
2022/02/17 10:22:04;;;;;;;35.33;32.85;;;;;;;11.27;58.66;95936.03;5094556;28;20417;-51
2022/02/17 10:24:34;;;;;;;;;;;;;;;10.98;59.78;96001.06;5075777;28;20024;-53
2022/02/17 10:27:09;;;;;;;8.13;5.23;;;;;;;10.95;60.48;96011.28;5089849;28;20577;-51
2022/02/17 10:29:36;;;;;;;33.47;31.08;;;;;;;11.18;60.81;96000.47;5094256;28;20772;-56
2022/02/17 10:32:07;;;;;;;26.55;24.40;;;;;;;11.18;59.88;96013.59;5094133;28;20386;-54
2022/02/17 10:34:33;;;;;;;24.70;22.50;;;;;;;11.27;59.31;96007.63;5087200;28;20387;-56
2022/02/17 10:37:00;;;;;;;23.40;21.50;;;;;;;11.40;58.73;96000.41;5094221;28;20386;-56
2022/02/17 10:39:28;;;;;;;28.08;25.90;;;;;;;11.48;59.22;96015.69;5092918;28;20885;-57
2022/02/17 10:41:55;;;;;;;25.60;23.60;;;;;;;11.56;58.85;96008.13;5084100;28;20410;-56
2022/02/17 10:44:33;;;;;;;26.92;24.83;;;;;;;11.22;59.28;95984.00;5110273;28;20521;-56
2022/02/17 10:47:20;;;;;;;27.92;25.88;;;;;;;10.98;60.33;95995.81;5093588;28;20454;-56
2022/02/17 10:49:53;;;;;;;26.73;24.40;;;;;;;10.85;61.02;95985.75;5087318;28;20920;-55
2022/02/17 10:52:33;;;;;;;26.45;24.35;;;;;;;10.66;62.10;96011.50;5088167;28;20436;-60
2022/02/17 10:55:28;;;;;;;25.63;23.65;;;;;;;10.68;62.03;95988.47;5090246;28;20443;-55
2022/02/17 10:57:54;;;;;;;23.08;21.05;;;;;;;10.56;61.31;96007.97;5066355;28;20452;-53
2022/02/17 11:00:23;;;;;;;30.33;27.95;;;;;;;10.54;61.01;95989.09;5093632;28;20406;-54
2022/02/17 11:02:51;;;;;;;30.00;27.38;;;;;;;10.52;60.14;96006.91;5092915;28;20402;-61
2022/02/17 11:05:18;;;;;;;26.67;24.50;;;;;;;10.58;60.76;95992.81;5091561;28;20481;-56
2022/02/17 11:07:46;;;;;;;27.85;25.63;;;;;;;10.76;60.31;96011.59;5087235;28;20413;-55
2022/02/17 11:10:12;;;;;;;24.95;23.10;;;;;;;10.79;59.74;96008.50;5093288;28;20406;-54
2022/02/17 11:12:40;;;;;;;23.92;21.77;;;;;;;10.89;58.88;95999.94;5082840;28;20784;-54